createdAt,value
2023-03-15T00:02:17.477Z,99.90
2023-03-15T00:04:45.501Z,99.90
2023-03-15T00:07:14.852Z,99.90
2023-03-15T00:09:42.958Z,99.90
2023-03-15T00:12:12.187Z,99.90
2023-03-15T00:14:40.233Z,99.90
2023-03-15T00:17:08.330Z,99.90
2023-03-15T00:19:36.399Z,99.90
2023-03-15T00:22:04.449Z,99.90
2023-03-15T00:24:33.797Z,99.90
2023-03-15T00:27:01.843Z,99.90
2023-03-15T00:29:29.929Z,99.90
2023-03-15T00:31:57.983Z,99.90
2023-03-15T00:34:26.509Z,99.90
2023-03-15T00:36:54.713Z,99.90
2023-03-15T00:39:25.663Z,99.90
2023-03-15T00:41:56.812Z,99.90
2023-03-15T00:44:25.269Z,99.90
2023-03-15T00:46:53.426Z,99.90
2023-03-15T00:49:21.512Z,99.90
2023-03-15T00:51:49.580Z,99.90
2023-03-15T00:54:17.569Z,99.90
2023-03-15T00:56:45.818Z,99.90
2023-03-15T00:59:15.170Z,99.90
2023-03-15T01:01:44.868Z,99.90
2023-03-15T01:04:13.411Z,99.90
2023-03-15T01:06:42.314Z,99.90
2023-03-15T01:09:11.207Z,99.90
2023-03-15T01:11:39.872Z,99.90
2023-03-15T01:14:09.154Z,99.90
2023-03-15T01:16:39.626Z,99.90
2023-03-15T01:19:10.863Z,99.90
2023-03-15T01:21:39.193Z,99.90
2023-03-15T01:24:07.624Z,99.90
2023-03-15T01:26:35.655Z,99.90
2023-03-15T01:29:04.651Z,99.90
2023-03-15T01:31:33.190Z,99.90
2023-03-15T01:34:02.610Z,99.90
2023-03-15T01:36:33.611Z,99.90
2023-03-15T01:39:01.660Z,99.90
2023-03-15T01:41:41.440Z,99.90
2023-03-15T01:44:13.703Z,99.90
2023-03-15T01:46:41.762Z,99.90
2023-03-15T01:49:22.713Z,99.90
2023-03-15T01:51:54.253Z,99.90
2023-03-15T01:54:30.486Z,99.90
2023-03-15T01:57:02.933Z,99.90
2023-03-15T01:59:34.057Z,99.90
2023-03-15T02:02:02.825Z,99.90
2023-03-15T02:04:36.143Z,99.90
2023-03-15T02:07:06.183Z,99.90
2023-03-15T02:09:43.549Z,99.90
2023-03-15T02:12:12.486Z,99.90
2023-03-15T02:14:41.796Z,99.90
2023-03-15T02:17:13.420Z,99.90
2023-03-15T02:19:54.023Z,99.90
2023-03-15T02:22:32.739Z,99.90
2023-03-15T02:25:09.369Z,99.90
2023-03-15T02:27:40.262Z,99.90
2023-03-15T02:30:10.830Z,99.90
2023-03-15T02:32:38.991Z,99.90
2023-03-15T02:35:07.680Z,99.90
2023-03-15T02:37:35.736Z,99.90
2023-03-15T02:40:05.850Z,99.90
2023-03-15T02:42:34.065Z,99.90
2023-03-15T02:45:04.195Z,99.90
2023-03-15T02:47:34.701Z,99.90
2023-03-15T02:50:03.492Z,99.90
2023-03-15T02:52:31.667Z,99.90
2023-03-15T02:54:59.711Z,99.90
2023-03-15T02:57:27.866Z,99.90
2023-03-15T02:59:57.259Z,99.90
2023-03-15T03:02:26.687Z,99.90
2023-03-15T03:04:54.794Z,99.90
2023-03-15T03:07:22.869Z,99.90
2023-03-15T03:09:57.463Z,99.90
2023-03-15T03:12:27.221Z,99.90
2023-03-15T03:14:56.613Z,99.90
2023-03-15T03:17:26.903Z,99.90
2023-03-15T03:19:55.224Z,99.90
2023-03-15T03:22:30.336Z,99.90
2023-03-15T03:24:58.406Z,99.90
2023-03-15T03:27:26.534Z,99.90
2023-03-15T03:29:54.923Z,99.90
2023-03-15T03:32:23.023Z,99.90
2023-03-15T03:34:55.454Z,99.90
2023-03-15T03:37:24.955Z,99.90
2023-03-15T03:40:09.001Z,99.90
2023-03-15T03:42:37.765Z,99.90
2023-03-15T03:45:08.457Z,99.90
2023-03-15T03:47:41.784Z,99.90
2023-03-15T03:50:12.602Z,99.90
2023-03-15T03:52:43.761Z,99.90
2023-03-15T03:55:15.974Z,99.90
2023-03-15T03:57:45.038Z,99.90
2023-03-15T04:00:21.595Z,99.90
2023-03-15T04:02:49.699Z,99.90
2023-03-15T04:05:19.950Z,99.90
2023-03-15T04:07:48.121Z,99.90
2023-03-15T04:10:18.106Z,99.90
2023-03-15T04:12:49.522Z,99.90
2023-03-15T04:15:17.677Z,99.90
2023-03-15T04:17:45.885Z,99.90
2023-03-15T04:20:15.439Z,99.90
2023-03-15T04:22:49.536Z,99.90
2023-03-15T04:25:50.693Z,99.90
2023-03-15T04:28:38.967Z,99.90
2023-03-15T04:31:37.737Z,99.90
2023-03-15T04:34:29.492Z,99.90
2023-03-15T04:37:07.602Z,99.90
2023-03-15T04:39:52.432Z,99.90
2023-03-15T04:42:46.696Z,99.90
2023-03-15T04:45:42.144Z,99.90
2023-03-15T04:48:39.227Z,99.90
2023-03-15T04:51:29.528Z,99.90
2023-03-15T04:54:28.198Z,99.90
2023-03-15T04:57:20.460Z,99.90
2023-03-15T05:00:13.480Z,99.90
2023-03-15T05:03:00.384Z,99.90
2023-03-15T05:05:42.862Z,99.90
2023-03-15T05:08:20.830Z,99.90
2023-03-15T05:11:06.590Z,99.90
2023-03-15T05:14:08.281Z,99.90
2023-03-15T05:16:48.244Z,99.90
2023-03-15T05:19:34.586Z,99.90
2023-03-15T05:22:28.154Z,99.90
2023-03-15T05:25:15.746Z,99.90
2023-03-15T05:28:19.404Z,99.90
2023-03-15T05:31:02.425Z,99.90
2023-03-15T05:33:49.505Z,99.90
2023-03-15T05:36:34.746Z,99.90
2023-03-15T05:39:22.798Z,99.90
2023-03-15T05:42:09.827Z,99.90
2023-03-15T05:44:37.821Z,99.90
2023-03-15T05:47:27.461Z,99.90
2023-03-15T05:50:21.915Z,99.90
2023-03-15T05:52:58.341Z,99.90
2023-03-15T05:55:44.791Z,99.90
2023-03-15T05:58:31.338Z,99.90
2023-03-15T06:01:24.935Z,99.90
2023-03-15T06:04:07.347Z,99.90
2023-03-15T06:06:36.571Z,99.90
2023-03-15T06:09:07.162Z,99.90
2023-03-15T06:11:36.231Z,99.90
2023-03-15T06:14:04.313Z,99.90
2023-03-15T06:16:38.453Z,99.90
2023-03-15T06:19:07.933Z,99.90
2023-03-15T06:21:35.960Z,99.90
2023-03-15T06:24:10.338Z,99.90
2023-03-15T06:26:38.797Z,99.90
2023-03-15T06:29:07.749Z,99.90
2023-03-15T06:31:35.921Z,99.90
2023-03-15T06:34:11.854Z,99.90
2023-03-15T06:36:39.910Z,99.90
2023-03-15T06:39:08.016Z,99.90
2023-03-15T06:41:36.074Z,99.90
2023-03-15T06:44:12.569Z,99.90
2023-03-15T06:46:41.954Z,99.90
2023-03-15T06:49:11.334Z,99.90
2023-03-15T06:51:39.680Z,99.90
2023-03-15T06:54:07.843Z,99.90
2023-03-15T06:56:37.339Z,99.90
2023-03-15T06:59:06.026Z,99.90
2023-03-15T07:01:34.136Z,99.90
2023-03-15T07:04:02.227Z,99.90
2023-03-15T07:06:31.580Z,99.90
2023-03-15T07:08:59.622Z,99.90
2023-03-15T07:11:27.671Z,99.90
2023-03-15T07:13:55.693Z,99.90
2023-03-15T07:16:23.787Z,99.90
2023-03-15T07:18:53.564Z,99.90
2023-03-15T07:21:21.604Z,99.90
2023-03-15T07:23:50.981Z,99.90
2023-03-15T07:26:18.986Z,99.90
2023-03-15T07:28:47.098Z,99.90
2023-03-15T07:31:15.592Z,99.90
2023-03-15T07:33:43.702Z,99.90
2023-03-15T07:36:11.760Z,99.90
2023-03-15T07:38:42.025Z,99.90
2023-03-15T07:41:13.148Z,99.90
2023-03-15T07:43:49.780Z,99.90
2023-03-15T07:46:19.587Z,99.90
2023-03-15T07:48:47.778Z,99.90
2023-03-15T07:51:15.826Z,99.90
2023-03-15T07:53:43.843Z,99.90
2023-03-15T07:56:13.216Z,99.90
2023-03-15T07:58:41.281Z,99.90
2023-03-15T08:01:10.233Z,99.90
2023-03-15T08:03:38.948Z,99.90
2023-03-15T08:06:07.294Z,99.90
2023-03-15T08:08:35.517Z,99.90
2023-03-15T08:11:05.373Z,99.90
2023-03-15T08:13:35.050Z,99.90
2023-03-15T08:16:03.222Z,99.90
2023-03-15T08:18:31.428Z,99.90
2023-03-15T08:20:59.779Z,99.90
2023-03-15T08:23:27.785Z,99.90
2023-03-15T08:25:55.760Z,99.90
2023-03-15T08:28:23.728Z,99.90
2023-03-15T08:30:53.064Z,99.90
2023-03-15T08:33:22.200Z,99.90
2023-03-15T08:35:54.136Z,99.90
2023-03-15T08:38:22.158Z,99.90
2023-03-15T08:40:50.162Z,99.90
2023-03-15T08:43:18.239Z,99.90
2023-03-15T08:46:00.220Z,99.90
2023-03-15T08:48:31.462Z,99.90
2023-03-15T08:51:04.033Z,99.90
2023-03-15T08:53:32.624Z,99.90
2023-03-15T08:56:00.936Z,99.90
2023-03-15T08:58:29.077Z,99.90
2023-03-15T09:00:57.810Z,99.90
2023-03-15T09:03:25.895Z,99.90
2023-03-15T09:05:58.690Z,99.90
2023-03-15T09:08:27.599Z,99.90
2023-03-15T09:10:56.709Z,99.90
2023-03-15T09:13:25.140Z,99.90
2023-03-15T09:15:54.300Z,99.90
2023-03-15T09:18:23.206Z,99.90
2023-03-15T09:20:51.243Z,99.90
2023-03-15T09:23:20.688Z,99.90
2023-03-15T09:25:48.718Z,99.90
2023-03-15T09:28:16.756Z,99.90
2023-03-15T09:30:44.807Z,99.90
2023-03-15T09:33:14.637Z,99.90
2023-03-15T09:35:43.327Z,99.90
2023-03-15T09:38:11.682Z,99.90
2023-03-15T09:40:45.044Z,99.90
2023-03-15T09:43:51.925Z,99.90
2023-03-15T09:46:28.636Z,99.90
2023-03-15T09:49:03.881Z,99.90
2023-03-15T09:51:39.502Z,99.90
2023-03-15T09:54:12.978Z,99.90
2023-03-15T09:56:48.706Z,99.90
2023-03-15T09:59:22.644Z,99.90
2023-03-15T10:01:55.042Z,99.90
2023-03-15T10:04:28.482Z,99.90
2023-03-15T10:06:59.038Z,99.90
2023-03-15T10:09:32.973Z,99.90
2023-03-15T10:12:06.671Z,99.90
2023-03-15T10:14:49.933Z,99.90
2023-03-15T10:17:25.760Z,99.90
2023-03-15T10:20:01.189Z,99.90
2023-03-15T10:22:33.879Z,99.90
2023-03-15T10:25:10.552Z,99.90
2023-03-15T10:27:44.661Z,99.90
2023-03-15T10:30:17.952Z,99.90
2023-03-15T10:32:49.345Z,99.90
2023-03-15T10:35:19.575Z,99.90
2023-03-15T10:37:48.037Z,99.90
2023-03-15T10:40:16.703Z,99.90
2023-03-15T10:42:47.504Z,99.90
2023-03-15T10:45:21.749Z,99.90
2023-03-15T10:47:59.686Z,99.90
2023-03-15T10:50:30.930Z,99.90
2023-03-15T10:53:00.510Z,99.90
2023-03-15T10:55:33.884Z,99.90
2023-03-15T10:58:20.368Z,99.90
2023-03-15T11:00:51.808Z,99.90
2023-03-15T11:03:21.852Z,99.90
2023-03-15T11:05:52.016Z,99.90
2023-03-15T11:08:22.024Z,99.90
2023-03-15T11:10:57.931Z,99.90
2023-03-15T11:13:28.558Z,99.90
2023-03-15T11:16:05.080Z,99.90
2023-03-15T11:18:37.588Z,99.90
2023-03-15T11:21:09.399Z,99.90
2023-03-15T11:23:40.470Z,99.90
2023-03-15T11:26:25.762Z,99.90
2023-03-15T11:29:06.154Z,99.90
2023-03-15T11:31:36.719Z,99.90
2023-03-15T11:34:09.233Z,99.90
2023-03-15T11:36:41.677Z,99.90
2023-03-15T11:39:14.937Z,99.90
2023-03-15T11:41:48.445Z,99.90
2023-03-15T11:44:28.603Z,99.90
2023-03-15T11:47:02.226Z,99.90
2023-03-15T11:49:37.639Z,99.90
2023-03-15T11:52:06.748Z,99.90
2023-03-15T11:54:35.026Z,99.90
2023-03-15T11:57:04.305Z,99.90
2023-03-15T11:59:35.733Z,99.90
2023-03-15T12:02:49.270Z,99.90
2023-03-15T12:05:43.165Z,99.90
2023-03-15T12:08:25.743Z,99.90
2023-03-15T12:10:54.867Z,99.90
2023-03-15T12:13:28.668Z,99.90
2023-03-15T12:15:57.360Z,99.90
2023-03-15T12:18:33.907Z,99.90
2023-03-15T12:21:17.520Z,99.90
2023-03-15T12:23:49.457Z,99.90
2023-03-15T12:26:27.118Z,99.90
2023-03-15T12:29:06.966Z,99.90
2023-03-15T12:31:46.868Z,99.90
2023-03-15T12:34:26.010Z,99.90
2023-03-15T12:36:57.222Z,99.90
2023-03-15T12:39:40.913Z,99.90
2023-03-15T12:42:14.342Z,99.90
2023-03-15T12:44:43.722Z,99.90
2023-03-15T12:47:12.480Z,99.90
2023-03-15T12:49:43.822Z,99.90
2023-03-15T12:52:33.758Z,99.90
2023-03-15T12:55:11.853Z,99.90
2023-03-15T12:57:47.616Z,99.90
2023-03-15T13:00:18.681Z,99.90
2023-03-15T13:02:49.632Z,99.90
2023-03-15T13:05:23.646Z,99.90
2023-03-15T13:08:04.888Z,99.90
2023-03-15T13:10:39.542Z,99.90
2023-03-15T13:13:41.780Z,99.90
2023-03-15T13:16:19.794Z,99.90
2023-03-15T13:18:55.861Z,99.90
2023-03-15T13:21:32.499Z,99.90
2023-03-15T13:24:00.722Z,99.90
2023-03-15T13:26:40.373Z,99.90
2023-03-15T13:29:14.951Z,99.90
2023-03-15T13:31:43.856Z,99.90
2023-03-15T13:34:15.138Z,99.90
2023-03-15T13:36:47.755Z,99.90
2023-03-15T13:39:20.624Z,99.90
2023-03-15T13:41:48.693Z,99.90
2023-03-15T13:44:20.057Z,99.90
2023-03-15T13:46:49.484Z,99.90
2023-03-15T13:49:17.967Z,99.90
2023-03-15T13:51:49.183Z,99.90
2023-03-15T13:54:19.505Z,99.90
2023-03-15T13:56:57.568Z,99.90
2023-03-15T13:59:32.573Z,99.90
2023-03-15T14:02:03.424Z,99.90
2023-03-15T14:04:36.221Z,99.90
2023-03-15T14:07:21.244Z,99.90
2023-03-15T14:09:49.302Z,99.90
2023-03-15T14:12:23.158Z,99.50
2023-03-15T14:14:53.536Z,99.90
2023-03-15T14:17:27.595Z,99.90
2023-03-15T14:19:57.705Z,99.90
2023-03-15T14:22:27.488Z,99.90
2023-03-15T14:24:55.537Z,99.90
2023-03-15T14:27:27.196Z,99.90
2023-03-15T14:29:58.650Z,99.90
2023-03-15T14:32:30.378Z,99.90
2023-03-15T14:35:02.304Z,99.80
2023-03-15T14:37:38.605Z,99.90
2023-03-15T14:40:20.865Z,99.80
2023-03-15T14:42:49.920Z,99.50
2023-03-15T14:45:19.063Z,99.20
2023-03-15T14:47:56.643Z,99.90
2023-03-15T14:50:27.596Z,98.90
2023-03-15T14:52:58.189Z,98.70
2023-03-15T14:55:31.140Z,99.10
2023-03-15T14:57:59.179Z,98.70
2023-03-15T15:00:27.337Z,98.90
2023-03-15T15:02:57.938Z,98.60
2023-03-15T15:05:34.102Z,98.90
2023-03-15T15:08:07.414Z,98.60
2023-03-15T15:10:35.745Z,98.90
2023-03-15T15:13:07.189Z,98.50
2023-03-15T15:15:53.938Z,98.80
2023-03-15T15:18:24.281Z,98.40
2023-03-15T15:20:55.283Z,97.90
2023-03-15T15:23:28.068Z,98.40
2023-03-15T15:25:59.018Z,97.70
2023-03-15T15:28:35.136Z,97.80
2023-03-15T15:31:06.954Z,97.70
2023-03-15T15:33:35.170Z,97.20
2023-03-15T15:36:04.361Z,97.40
2023-03-15T15:38:38.728Z,96.90
2023-03-15T15:41:12.574Z,97.00
2023-03-15T15:43:40.631Z,97.30
2023-03-15T15:46:12.100Z,96.70
2023-03-15T15:48:42.163Z,97.00
2023-03-15T15:51:26.265Z,96.60
2023-03-15T15:53:57.314Z,97.40
2023-03-15T15:56:32.725Z,96.60
2023-03-15T15:59:03.058Z,96.60
2023-03-15T16:01:31.318Z,96.50
2023-03-15T16:03:59.682Z,96.20
2023-03-15T16:06:27.750Z,96.10
2023-03-15T16:08:57.552Z,96.30
2023-03-15T16:11:25.895Z,96.30
2023-03-15T16:13:54.659Z,96.20
2023-03-15T16:16:22.998Z,96.00
2023-03-15T16:18:51.171Z,96.10
2023-03-15T16:21:27.440Z,95.90
2023-03-15T16:23:59.966Z,96.40
2023-03-15T16:26:28.702Z,96.20
2023-03-15T16:28:56.834Z,96.00
2023-03-15T16:31:24.907Z,95.90
2023-03-15T16:33:52.993Z,95.70
2023-03-15T16:36:23.173Z,96.20
2023-03-15T16:38:51.286Z,95.70
2023-03-15T16:41:20.670Z,95.90
2023-03-15T16:43:49.546Z,95.90
2023-03-15T16:46:18.492Z,96.10
2023-03-15T16:48:46.613Z,96.30
2023-03-15T16:51:16.699Z,96.10
2023-03-15T16:53:45.471Z,96.30
2023-03-15T16:56:15.340Z,96.40
2023-03-15T16:58:45.138Z,96.70
2023-03-15T17:01:13.203Z,96.50
2023-03-15T17:03:41.236Z,96.90
2023-03-15T17:06:17.050Z,96.00
2023-03-15T17:08:45.212Z,96.00
2023-03-15T17:11:13.374Z,96.40
2023-03-15T17:13:41.924Z,96.70
2023-03-15T17:16:13.139Z,97.20
2023-03-15T17:18:42.936Z,97.60
2023-03-15T17:21:13.647Z,97.90
2023-03-15T17:23:42.086Z,97.90
2023-03-15T17:26:12.980Z,98.10
2023-03-15T17:28:42.601Z,97.40
2023-03-15T17:31:31.041Z,97.90
2023-03-15T17:33:59.455Z,97.80
2023-03-15T17:36:32.330Z,97.90
2023-03-15T17:39:02.716Z,97.80
2023-03-15T17:41:32.556Z,97.80
2023-03-15T17:44:00.844Z,96.90
2023-03-15T17:46:32.937Z,97.40
2023-03-15T17:49:02.880Z,97.90
2023-03-15T17:51:33.178Z,98.50
2023-03-15T17:54:02.190Z,98.70
2023-03-15T17:56:31.514Z,98.70
2023-03-15T17:58:59.606Z,98.90
2023-03-15T18:01:30.113Z,98.60
2023-03-15T18:03:58.335Z,98.60
2023-03-15T18:06:26.421Z,98.90
2023-03-15T18:08:54.439Z,99.00
2023-03-15T18:11:26.685Z,98.90
2023-03-15T18:13:55.219Z,98.80
2023-03-15T18:16:23.455Z,98.70
2023-03-15T18:18:52.831Z,98.70
2023-03-15T18:21:23.022Z,98.60
2023-03-15T18:23:51.166Z,98.70
2023-03-15T18:26:20.571Z,99.00
2023-03-15T18:28:49.129Z,98.90
2023-03-15T18:31:18.927Z,99.00
2023-03-15T18:33:47.451Z,99.00
2023-03-15T18:36:16.907Z,98.80
2023-03-15T18:38:45.369Z,98.60
2023-03-15T18:41:19.839Z,98.50
2023-03-15T18:43:50.357Z,98.70
2023-03-15T18:46:19.632Z,98.40
2023-03-15T18:48:49.847Z,98.40
2023-03-15T18:51:19.300Z,98.50
2023-03-15T18:53:47.350Z,98.80
2023-03-15T18:56:19.224Z,98.90
2023-03-15T18:58:47.415Z,99.10
2023-03-15T19:01:15.689Z,99.10
2023-03-15T19:03:44.262Z,99.10
2023-03-15T19:06:13.622Z,99.20
2023-03-15T19:08:43.028Z,99.30
2023-03-15T19:11:11.536Z,99.30
2023-03-15T19:13:39.832Z,99.40
2023-03-15T19:16:08.226Z,99.40
2023-03-15T19:18:42.568Z,99.00
2023-03-15T19:21:10.788Z,99.30
2023-03-15T19:23:39.003Z,99.30
2023-03-15T19:26:08.946Z,99.30
2023-03-15T19:28:37.000Z,99.20
2023-03-15T19:31:05.216Z,99.10
2023-03-15T19:33:34.514Z,99.30
2023-03-15T19:36:02.800Z,99.40
2023-03-15T19:38:30.898Z,99.60
2023-03-15T19:41:04.084Z,99.80
2023-03-15T19:43:33.611Z,99.20
2023-03-15T19:46:04.267Z,99.00
2023-03-15T19:48:32.382Z,99.20
2023-03-15T19:51:00.771Z,99.40
2023-03-15T19:53:30.267Z,99.60
2023-03-15T19:55:58.372Z,99.50
2023-03-15T19:58:26.437Z,99.50
2023-03-15T20:00:57.834Z,99.60
2023-03-15T20:03:25.950Z,99.50
2023-03-15T20:05:54.102Z,99.70
2023-03-15T20:08:23.362Z,99.70
2023-03-15T20:11:00.436Z,99.80
2023-03-15T20:13:28.583Z,99.90
2023-03-15T20:15:58.311Z,99.80
2023-03-15T20:18:26.547Z,99.80
2023-03-15T20:20:54.934Z,99.90
2023-03-15T20:23:23.191Z,99.70
2023-03-15T20:25:51.271Z,99.50
2023-03-15T20:28:19.323Z,99.50
2023-03-15T20:30:47.371Z,99.50
2023-03-15T20:33:16.792Z,99.70
2023-03-15T20:35:44.930Z,99.60
2023-03-15T20:38:13.240Z,99.50
2023-03-15T20:40:41.323Z,99.60
2023-03-15T20:43:11.279Z,99.70
2023-03-15T20:45:40.151Z,99.60
2023-03-15T20:48:08.213Z,99.70
2023-03-15T20:50:37.647Z,99.90
2023-03-15T20:53:05.712Z,99.90
2023-03-15T20:55:33.743Z,99.90
2023-03-15T20:58:01.810Z,99.90
2023-03-15T21:00:30.208Z,99.90
2023-03-15T21:02:58.358Z,99.90
2023-03-15T21:05:27.838Z,99.90
2023-03-15T21:07:57.273Z,99.90
2023-03-15T21:10:25.631Z,99.90
2023-03-15T21:12:53.708Z,99.90
2023-03-15T21:15:21.894Z,99.90
2023-03-15T21:17:50.031Z,99.90
2023-03-15T21:20:18.815Z,99.90
2023-03-15T21:22:46.843Z,99.90
2023-03-15T21:25:16.875Z,99.90
2023-03-15T21:27:45.122Z,99.90
2023-03-15T21:30:14.343Z,99.90
2023-03-15T21:32:43.071Z,99.80
2023-03-15T21:35:11.406Z,99.90
2023-03-15T21:37:40.093Z,99.90
2023-03-15T21:40:09.414Z,99.90
2023-03-15T21:42:39.073Z,99.90
2023-03-15T21:45:08.723Z,99.90
2023-03-15T21:47:36.875Z,99.90
2023-03-15T21:50:05.949Z,99.90
2023-03-15T21:52:34.032Z,99.90
2023-03-15T21:55:02.306Z,99.90
2023-03-15T21:57:30.445Z,99.90
2023-03-15T21:59:59.814Z,99.90
2023-03-15T22:02:27.903Z,99.90
2023-03-15T22:04:55.996Z,99.90
2023-03-15T22:07:24.071Z,99.90
2023-03-15T22:09:53.081Z,99.90
2023-03-15T22:12:21.261Z,99.90
2023-03-15T22:14:56.873Z,99.90
2023-03-15T22:17:34.086Z,99.90
2023-03-15T22:20:05.218Z,99.90
2023-03-15T22:22:33.281Z,99.90
2023-03-15T22:25:01.280Z,99.90
2023-03-15T22:27:29.300Z,99.90
2023-03-15T22:29:57.671Z,99.90
2023-03-15T22:32:25.761Z,99.90
2023-03-15T22:34:55.162Z,99.90
2023-03-15T22:37:23.871Z,99.90
2023-03-15T22:39:52.120Z,99.90
2023-03-15T22:42:20.106Z,99.90
2023-03-15T22:44:48.078Z,99.90
2023-03-15T22:47:16.153Z,99.90
2023-03-15T22:49:44.192Z,99.90
2023-03-15T22:52:13.871Z,99.90
2023-03-15T22:54:43.450Z,99.90
2023-03-15T22:57:12.276Z,99.90
2023-03-15T22:59:40.430Z,99.90
2023-03-15T23:02:08.708Z,99.90
2023-03-15T23:04:36.815Z,99.90
2023-03-15T23:07:04.949Z,99.90
2023-03-15T23:09:34.298Z,99.90
2023-03-15T23:12:02.300Z,99.90
2023-03-15T23:14:30.658Z,99.90
2023-03-15T23:16:59.186Z,99.90
2023-03-15T23:19:27.212Z,99.90
2023-03-15T23:21:55.267Z,99.90
2023-03-15T23:24:24.618Z,99.90
2023-03-15T23:26:56.408Z,99.90
2023-03-15T23:29:24.534Z,99.90
2023-03-15T23:31:52.589Z,99.90
2023-03-15T23:34:23.407Z,99.90
2023-03-15T23:36:51.516Z,99.90
2023-03-15T23:39:20.054Z,99.90
2023-03-15T23:41:48.752Z,99.90
2023-03-15T23:44:19.066Z,99.90
2023-03-15T23:46:47.128Z,99.90
2023-03-15T23:49:15.310Z,99.90
2023-03-15T23:51:43.934Z,99.90
2023-03-15T23:54:12.260Z,99.90
2023-03-15T23:56:40.330Z,99.90
2023-03-15T23:59:08.358Z,99.90
